createdAt,value
2023-05-25T00:01:31.753Z,98701.44
2023-05-25T00:04:00.718Z,98699.91
2023-05-25T00:06:30.297Z,98711.16
2023-05-25T00:08:59.087Z,98715.53
2023-05-25T00:11:27.771Z,98718.03
2023-05-25T00:13:56.494Z,98707.88
2023-05-25T00:16:24.777Z,98714.25
2023-05-25T00:18:57.709Z,98703.25
2023-05-25T00:21:26.375Z,98710.66
2023-05-25T00:23:55.093Z,98709.84
2023-05-25T00:26:23.350Z,98719.94
2023-05-25T00:28:51.941Z,98717.00
2023-05-25T00:31:20.601Z,98714.91
2023-05-25T00:33:50.549Z,98716.84
2023-05-25T00:36:20.757Z,98715.75
2023-05-25T00:38:49.224Z,98710.81
2023-05-25T00:41:18.640Z,98718.19
2023-05-25T00:43:47.664Z,98714.59
2023-05-25T00:46:17.014Z,98708.38
2023-05-25T00:48:47.116Z,98709.06
2023-05-25T00:51:15.873Z,98709.19
2023-05-25T00:53:45.996Z,98708.91
2023-05-25T00:56:16.349Z,98708.56
2023-05-25T00:58:46.227Z,98711.66
2023-05-25T01:01:15.396Z,98706.72
2023-05-25T01:03:46.910Z,98706.59
2023-05-25T01:06:17.190Z,98711.06
2023-05-25T01:09:00.399Z,98715.91
2023-05-25T01:11:30.645Z,98723.69
2023-05-25T01:13:59.785Z,98720.91
2023-05-25T01:16:28.161Z,98723.00
2023-05-25T01:18:58.429Z,98713.41
2023-05-25T01:21:31.987Z,98707.28
2023-05-25T01:24:04.774Z,98719.50
2023-05-25T01:26:36.447Z,98712.66
2023-05-25T01:29:06.164Z,98715.09
2023-05-25T01:31:36.226Z,98722.22
2023-05-25T01:34:06.130Z,98721.56
2023-05-25T01:36:35.771Z,98719.28
2023-05-25T01:39:06.889Z,98723.41
2023-05-25T01:41:35.267Z,98725.34
2023-05-25T01:44:04.015Z,98727.25
2023-05-25T01:46:35.785Z,98726.47
2023-05-25T01:49:14.222Z,98720.16
2023-05-25T01:51:49.634Z,98729.75
2023-05-25T01:54:20.799Z,98722.56
2023-05-25T01:56:51.132Z,98725.47
2023-05-25T01:59:22.198Z,98718.19
2023-05-25T02:01:52.950Z,98721.56
2023-05-25T02:04:23.012Z,98719.28
2023-05-25T02:06:54.124Z,98712.97
2023-05-25T02:09:22.885Z,98706.03
2023-05-25T02:11:51.249Z,98711.25
2023-05-25T02:14:19.861Z,98698.59
2023-05-25T02:16:48.520Z,98705.09
2023-05-25T02:19:17.075Z,98704.56
2023-05-25T02:21:47.517Z,98711.94
2023-05-25T02:24:18.580Z,98710.22
2023-05-25T02:26:47.032Z,98709.50
2023-05-25T02:29:15.716Z,98711.41
2023-05-25T02:31:44.148Z,98711.06
2023-05-25T02:34:14.022Z,98718.84
2023-05-25T02:36:43.474Z,98713.28
2023-05-25T02:39:12.015Z,98707.84
2023-05-25T02:41:41.834Z,98716.78
2023-05-25T02:44:10.383Z,98715.00
2023-05-25T02:46:38.845Z,98716.47
2023-05-25T02:49:07.368Z,98716.03
2023-05-25T02:51:36.074Z,98712.72
2023-05-25T02:54:05.350Z,98715.56
2023-05-25T02:56:33.817Z,98707.44
2023-05-25T02:59:03.817Z,98709.34
2023-05-25T03:01:32.409Z,98709.06
2023-05-25T03:04:01.171Z,98701.06
2023-05-25T03:06:30.035Z,98706.47
2023-05-25T03:08:58.542Z,98700.25
2023-05-25T03:11:27.032Z,98704.81
2023-05-25T03:13:55.448Z,98700.59
2023-05-25T03:16:26.152Z,98710.16
2023-05-25T03:18:55.010Z,98703.38
2023-05-25T03:21:23.808Z,98702.72
2023-05-25T03:23:52.277Z,98710.38
2023-05-25T03:26:21.228Z,98704.06
2023-05-25T03:28:49.657Z,98706.84
2023-05-25T03:31:18.127Z,98711.78
2023-05-25T03:33:47.951Z,98708.72
2023-05-25T03:36:17.639Z,98704.56
2023-05-25T03:38:46.293Z,98712.88
2023-05-25T03:41:14.481Z,98715.66
2023-05-25T03:43:42.947Z,98716.00
2023-05-25T03:46:11.791Z,98717.66
2023-05-25T03:48:40.562Z,98718.78
2023-05-25T03:51:10.101Z,98723.84
2023-05-25T03:53:38.822Z,98724.59
2023-05-25T03:56:08.225Z,98729.38
2023-05-25T03:58:37.296Z,98728.63
2023-05-25T04:01:05.779Z,98733.72
2023-05-25T04:03:34.884Z,98731.59
2023-05-25T04:06:04.151Z,98737.66
2023-05-25T04:08:34.196Z,98749.25
2023-05-25T04:11:02.506Z,98738.88
2023-05-25T04:13:31.583Z,98738.56
2023-05-25T04:15:59.921Z,98737.94
2023-05-25T04:18:28.597Z,98740.34
2023-05-25T04:20:57.617Z,98740.88
2023-05-25T04:23:26.214Z,98756.69
2023-05-25T04:25:56.336Z,98750.44
2023-05-25T04:28:24.985Z,98757.22
2023-05-25T04:30:57.416Z,98755.28
2023-05-25T04:33:29.863Z,98754.59
2023-05-25T04:35:59.829Z,98756.91
2023-05-25T04:38:28.342Z,98753.69
2023-05-25T04:40:58.904Z,98756.75
2023-05-25T04:43:27.889Z,98759.13
2023-05-25T04:45:56.880Z,98759.06
2023-05-25T04:48:25.820Z,98763.72
2023-05-25T04:50:55.839Z,98761.13
2023-05-25T04:53:24.614Z,98766.44
2023-05-25T04:55:54.846Z,98766.38
2023-05-25T04:58:25.262Z,98761.19
2023-05-25T05:00:53.621Z,98762.22
2023-05-25T05:03:22.615Z,98767.66
2023-05-25T05:05:51.052Z,98769.09
2023-05-25T05:08:19.740Z,98768.94
2023-05-25T05:10:48.126Z,98768.06
2023-05-25T05:13:17.537Z,98770.34
2023-05-25T05:15:48.807Z,98774.56
2023-05-25T05:18:17.375Z,98780.19
2023-05-25T05:20:46.460Z,98782.81
2023-05-25T05:23:15.276Z,98785.16
2023-05-25T05:25:43.887Z,98792.22
2023-05-25T05:28:12.894Z,98787.25
2023-05-25T05:30:41.298Z,98789.66
2023-05-25T05:33:11.523Z,98788.75
2023-05-25T05:35:39.835Z,98791.19
2023-05-25T05:38:09.796Z,98795.75
2023-05-25T05:40:38.332Z,98787.28
2023-05-25T05:43:06.976Z,98797.69
2023-05-25T05:45:35.566Z,98801.63
2023-05-25T05:48:04.778Z,98802.34
2023-05-25T05:50:34.490Z,98793.28
2023-05-25T05:53:03.398Z,98803.03
2023-05-25T05:55:31.743Z,98798.47
2023-05-25T05:58:00.727Z,98807.25
2023-05-25T06:00:29.205Z,98812.16
2023-05-25T06:02:58.107Z,98806.78
2023-05-25T06:05:27.105Z,98816.09
2023-05-25T06:07:57.154Z,98803.31
2023-05-25T06:10:25.594Z,98812.50
2023-05-25T06:12:54.350Z,98822.47
2023-05-25T06:15:22.682Z,98812.34
2023-05-25T06:17:51.213Z,98826.88
2023-05-25T06:20:19.532Z,98821.28
2023-05-25T06:22:52.593Z,98823.38
2023-05-25T06:25:22.451Z,98827.97
2023-05-25T06:27:51.058Z,98828.78
2023-05-25T06:30:19.428Z,98831.22
2023-05-25T06:32:48.584Z,98837.25
2023-05-25T06:35:20.087Z,98834.81
2023-05-25T06:37:49.481Z,98837.06
2023-05-25T06:40:18.176Z,98832.19
2023-05-25T06:42:48.222Z,98837.69
2023-05-25T06:45:16.828Z,98843.81
2023-05-25T06:47:45.821Z,98842.97
2023-05-25T06:50:14.261Z,98833.88
2023-05-25T06:52:42.959Z,98839.09
2023-05-25T06:55:11.902Z,98843.81
2023-05-25T06:57:41.607Z,98849.53
2023-05-25T07:00:13.250Z,98852.41
2023-05-25T07:02:42.191Z,98850.22
2023-05-25T07:05:11.542Z,98846.88
2023-05-25T07:07:40.116Z,98843.13
2023-05-25T07:10:10.327Z,98837.69
2023-05-25T07:12:39.227Z,98854.06
2023-05-25T07:15:08.750Z,98853.22
2023-05-25T07:17:39.169Z,98855.59
2023-05-25T07:20:09.070Z,98856.66
2023-05-25T07:22:38.042Z,98853.72
2023-05-25T07:25:07.658Z,98854.34
2023-05-25T07:27:36.384Z,98860.72
2023-05-25T07:30:05.370Z,98868.75
2023-05-25T07:32:34.084Z,98868.13
2023-05-25T07:35:04.198Z,98873.47
2023-05-25T07:37:32.865Z,98870.38
2023-05-25T07:40:01.685Z,98872.66
2023-05-25T07:42:34.408Z,98862.22
2023-05-25T07:45:02.818Z,98861.88
2023-05-25T07:47:31.809Z,98864.56
2023-05-25T07:50:00.178Z,98866.19
2023-05-25T07:52:30.415Z,98871.41
2023-05-25T07:54:58.846Z,98876.09
2023-05-25T07:57:27.419Z,98875.44
2023-05-25T07:59:55.678Z,98881.94
2023-05-25T08:02:24.388Z,98878.16
2023-05-25T08:04:53.341Z,98872.06
2023-05-25T08:07:22.157Z,98878.31
2023-05-25T08:09:51.945Z,98875.31
2023-05-25T08:14:52.127Z,98874.66
2023-05-25T08:17:21.134Z,98867.06
2023-05-25T08:19:49.757Z,98867.19
2023-05-25T08:22:18.540Z,98866.56
2023-05-25T08:24:46.983Z,98872.25
2023-05-25T08:27:17.346Z,98872.69
2023-05-25T08:29:45.721Z,98867.53
2023-05-25T08:32:14.348Z,98870.53
2023-05-25T08:34:42.497Z,98873.50
2023-05-25T08:37:11.938Z,98869.50
2023-05-25T08:39:40.467Z,98874.94
2023-05-25T08:42:09.270Z,98869.00
2023-05-25T08:44:40.217Z,98872.06
2023-05-25T08:47:08.604Z,98862.72
2023-05-25T08:49:39.513Z,98871.81
2023-05-25T08:52:12.422Z,98868.38
2023-05-25T08:54:45.358Z,98874.44
2023-05-25T08:57:16.887Z,98873.31
2023-05-25T08:59:48.869Z,98877.09
2023-05-25T09:02:23.858Z,98877.06
2023-05-25T09:04:52.512Z,98872.22
2023-05-25T09:07:21.858Z,98873.41
2023-05-25T09:09:50.742Z,98865.25
2023-05-25T09:12:20.220Z,98871.66
2023-05-25T09:14:50.116Z,98865.50
2023-05-25T09:17:20.257Z,98872.06
2023-05-25T09:19:48.809Z,98868.13
2023-05-25T09:22:17.550Z,98868.34
2023-05-25T09:24:46.238Z,98869.97
2023-05-25T09:27:19.330Z,98876.31
2023-05-25T09:29:50.713Z,98879.66
2023-05-25T09:32:20.117Z,98877.38
2023-05-25T09:34:48.927Z,98878.31
2023-05-25T09:37:20.247Z,98876.88
2023-05-25T09:39:49.221Z,98879.59
2023-05-25T09:42:18.015Z,98879.13
2023-05-25T09:44:46.509Z,98884.69
2023-05-25T09:47:18.013Z,98879.19
2023-05-25T09:49:49.525Z,98889.63
2023-05-25T09:52:18.291Z,98878.34
2023-05-25T09:54:47.430Z,98887.34
2023-05-25T09:57:16.369Z,98885.94
2023-05-25T09:59:45.532Z,98876.84
2023-05-25T10:02:14.401Z,98883.75
2023-05-25T10:04:44.138Z,98876.25
2023-05-25T10:07:16.056Z,98875.91
2023-05-25T10:09:47.643Z,98876.84
2023-05-25T10:12:19.723Z,98871.97
2023-05-25T10:14:50.771Z,98882.50
2023-05-25T10:17:23.125Z,98875.91
2023-05-25T10:19:57.041Z,98869.75
2023-05-25T10:22:29.071Z,98874.47
2023-05-25T10:25:03.553Z,98879.63
2023-05-25T10:27:36.125Z,98883.09
2023-05-25T10:30:04.731Z,98870.19
2023-05-25T10:32:34.868Z,98879.97
2023-05-25T10:35:05.442Z,98880.91
2023-05-25T10:37:35.202Z,98885.66
2023-05-25T10:40:03.818Z,98889.38
2023-05-25T10:42:34.489Z,98888.81
2023-05-25T10:45:03.448Z,98880.16
2023-05-25T10:47:32.319Z,98878.22
2023-05-25T10:50:03.245Z,98880.66
2023-05-25T10:52:34.072Z,98888.13
2023-05-25T10:55:05.395Z,98887.44
2023-05-25T10:57:34.340Z,98883.53
2023-05-25T11:00:06.667Z,98886.94
2023-05-25T11:02:54.033Z,98881.34
2023-05-25T11:05:36.845Z,98880.34
2023-05-25T11:08:08.760Z,98878.19
2023-05-25T11:10:56.730Z,98883.06
2023-05-25T11:13:35.553Z,98874.59
2023-05-25T11:16:19.146Z,98866.69
2023-05-25T11:18:51.661Z,98865.34
2023-05-25T11:21:40.926Z,98868.16
2023-05-25T11:24:16.283Z,98867.09
2023-05-25T11:26:59.224Z,98864.78
2023-05-25T11:29:32.260Z,98872.16
2023-05-25T11:32:01.545Z,98857.00
2023-05-25T11:34:32.215Z,98862.31
2023-05-25T11:37:04.048Z,98854.47
2023-05-25T11:39:34.256Z,98861.84
2023-05-25T11:42:07.110Z,98863.84
2023-05-25T11:44:39.116Z,98860.59
2023-05-25T11:47:10.290Z,98866.69
2023-05-25T11:49:41.968Z,98865.06
2023-05-25T11:52:10.722Z,98862.00
2023-05-25T11:54:42.055Z,98859.91
2023-05-25T11:57:15.759Z,98854.84
2023-05-25T11:59:50.299Z,98849.94
2023-05-25T12:02:18.900Z,98850.91
2023-05-25T12:04:55.577Z,98854.72
2023-05-25T12:07:24.776Z,98847.16
2023-05-25T12:10:06.246Z,98852.56
2023-05-25T12:12:42.674Z,98841.09
2023-05-25T12:15:12.986Z,98841.31
2023-05-25T12:17:44.401Z,98838.94
2023-05-25T12:20:15.619Z,98835.88
2023-05-25T12:22:45.252Z,98839.00
2023-05-25T12:25:16.847Z,98833.44
2023-05-25T12:27:45.151Z,98837.59
2023-05-25T12:30:16.380Z,98834.28
2023-05-25T12:33:03.768Z,98833.69
2023-05-25T12:35:46.295Z,98828.56
2023-05-25T12:38:15.679Z,98835.63
2023-05-25T12:40:46.322Z,98836.34
2023-05-25T12:43:17.092Z,98828.00
2023-05-25T12:45:46.498Z,98821.91
2023-05-25T12:48:15.129Z,98827.31
2023-05-25T12:50:59.268Z,98832.81
2023-05-25T12:53:29.251Z,98829.94
2023-05-25T12:56:06.617Z,98829.41
2023-05-25T12:58:35.157Z,98820.72
2023-05-25T13:01:04.202Z,98824.69
2023-05-25T13:03:32.537Z,98835.88
2023-05-25T13:06:02.653Z,98831.91
2023-05-25T13:08:31.154Z,98835.06
2023-05-25T13:11:00.323Z,98832.34
2023-05-25T13:13:30.472Z,98829.91
2023-05-25T13:15:59.429Z,98825.13
2023-05-25T13:18:27.989Z,98820.16
2023-05-25T13:20:57.485Z,98819.59
2023-05-25T13:23:26.570Z,98825.28
2023-05-25T13:25:55.156Z,98817.50
2023-05-25T13:28:24.035Z,98821.19
2023-05-25T13:30:54.248Z,98811.06
2023-05-25T13:33:22.736Z,98810.03
2023-05-25T13:35:59.300Z,98809.13
2023-05-25T13:38:29.675Z,98806.31
2023-05-25T13:40:58.663Z,98810.47
2023-05-25T13:43:27.121Z,98805.78
2023-05-25T13:45:59.202Z,98799.38
2023-05-25T13:48:27.797Z,98808.22
2023-05-25T13:50:56.814Z,98807.22
2023-05-25T13:53:25.258Z,98810.44
2023-05-25T13:55:54.469Z,98810.16
2023-05-25T13:58:24.996Z,98813.75
2023-05-25T14:00:53.973Z,98805.41
2023-05-25T14:03:23.855Z,98808.56
2023-05-25T14:05:54.111Z,98817.19
2023-05-25T14:08:23.081Z,98812.25
2023-05-25T14:10:51.783Z,98807.63
2023-05-25T14:13:20.301Z,98806.16
2023-05-25T14:15:49.378Z,98810.56
2023-05-25T14:18:17.697Z,98807.56
2023-05-25T14:20:48.161Z,98808.72
2023-05-25T14:23:19.412Z,98806.97
2023-05-25T14:25:49.905Z,98806.56
2023-05-25T14:28:18.258Z,98793.59
2023-05-25T14:30:46.897Z,98796.81
2023-05-25T14:33:17.553Z,98791.50
2023-05-25T14:35:47.888Z,98784.97
2023-05-25T14:38:16.556Z,98800.94
2023-05-25T14:40:45.755Z,98794.84
2023-05-25T14:43:14.189Z,98791.53
2023-05-25T14:45:43.054Z,98787.31
2023-05-25T14:48:16.779Z,98794.41
2023-05-25T14:50:47.298Z,98785.97
2023-05-25T14:53:16.259Z,98786.91
2023-05-25T14:55:45.300Z,98793.09
2023-05-25T14:58:13.938Z,98793.16
2023-05-25T15:00:42.754Z,98792.75
2023-05-25T15:03:11.193Z,98787.94
2023-05-25T15:05:40.038Z,98791.13
2023-05-25T15:08:09.884Z,98797.59
2023-05-25T15:10:38.899Z,98795.28
2023-05-25T15:13:07.466Z,98786.81
2023-05-25T15:15:36.437Z,98789.81
2023-05-25T15:18:05.248Z,98792.84
2023-05-25T15:20:34.115Z,98789.34
2023-05-25T15:23:03.340Z,98782.25
2023-05-25T15:25:35.649Z,98777.06
2023-05-25T15:28:05.087Z,98780.78
2023-05-25T15:30:34.584Z,98780.28
2023-05-25T15:33:03.546Z,98771.59
2023-05-25T15:35:35.599Z,98775.56
2023-05-25T15:38:04.726Z,98772.19
2023-05-25T15:40:37.361Z,98771.91
2023-05-25T15:43:05.561Z,98779.63
2023-05-25T15:45:34.483Z,98780.44
2023-05-25T15:48:04.150Z,98784.84
2023-05-25T15:50:33.176Z,98775.91
2023-05-25T15:53:01.819Z,98774.41
2023-05-25T15:55:30.460Z,98764.28
2023-05-25T15:58:00.545Z,98773.03
2023-05-25T16:00:29.317Z,98777.72
2023-05-25T16:02:58.395Z,98773.41
2023-05-25T16:05:30.340Z,98775.94
2023-05-25T16:07:58.635Z,98777.16
2023-05-25T16:10:27.686Z,98763.84
2023-05-25T16:12:56.315Z,98768.50
2023-05-25T16:15:26.873Z,98764.00
2023-05-25T16:17:55.561Z,98763.03
2023-05-25T16:20:24.234Z,98773.03
2023-05-25T16:22:52.710Z,98769.06
2023-05-25T16:25:21.707Z,98765.91
2023-05-25T16:27:50.259Z,98760.13
2023-05-25T16:30:18.913Z,98761.06
2023-05-25T16:32:49.100Z,98767.69
2023-05-25T16:35:18.035Z,98756.19
2023-05-25T16:37:46.521Z,98754.56
2023-05-25T16:40:15.886Z,98757.25
2023-05-25T16:42:44.429Z,98763.44
2023-05-25T16:45:13.608Z,98760.41
2023-05-25T16:47:42.249Z,98761.34
2023-05-25T16:50:15.572Z,98764.22
2023-05-25T16:52:44.093Z,98758.91
2023-05-25T16:55:14.888Z,98761.09
2023-05-25T16:57:45.189Z,98752.28
2023-05-25T17:00:15.212Z,98764.00
2023-05-25T17:02:43.726Z,98752.56
2023-05-25T17:05:12.564Z,98753.47
2023-05-25T17:07:42.692Z,98749.94
2023-05-25T17:10:12.307Z,98754.19
2023-05-25T17:12:40.949Z,98752.16
2023-05-25T17:15:11.355Z,98756.72
2023-05-25T17:17:39.863Z,98760.19
2023-05-25T17:20:10.848Z,98763.34
2023-05-25T17:22:39.776Z,98765.78
2023-05-25T17:25:11.411Z,98763.13
2023-05-25T17:27:40.167Z,98767.25
2023-05-25T17:30:10.477Z,98764.81
2023-05-25T17:32:40.179Z,98761.34
2023-05-25T17:35:09.545Z,98760.53
2023-05-25T17:37:38.204Z,98756.22
2023-05-25T17:40:10.030Z,98764.59
2023-05-25T17:42:40.797Z,98760.31
2023-05-25T17:45:11.863Z,98764.47
2023-05-25T17:47:40.473Z,98760.84
2023-05-25T17:50:09.964Z,98771.19
2023-05-25T17:52:38.609Z,98764.19
2023-05-25T17:55:09.910Z,98774.66
2023-05-25T17:57:38.228Z,98771.47
2023-05-25T18:00:08.873Z,98768.16
2023-05-25T18:02:37.610Z,98781.19
2023-05-25T18:05:07.669Z,98762.22
2023-05-25T18:07:36.161Z,98772.84
2023-05-25T18:10:05.356Z,98764.59
2023-05-25T18:12:35.271Z,98761.44
2023-05-25T18:15:04.073Z,98763.69
2023-05-25T18:17:32.614Z,98766.22
2023-05-25T18:20:01.570Z,98759.88
2023-05-25T18:22:30.150Z,98760.31
2023-05-25T18:24:58.863Z,98768.09
2023-05-25T18:27:27.298Z,98769.94
2023-05-25T18:29:58.228Z,98766.03
2023-05-25T18:32:26.702Z,98781.19
2023-05-25T18:34:57.169Z,98778.50
2023-05-25T18:37:26.723Z,98783.91
2023-05-25T18:39:55.459Z,98784.06
2023-05-25T18:42:24.012Z,98785.06
2023-05-25T18:44:52.867Z,98789.63
2023-05-25T18:47:23.933Z,98789.75
2023-05-25T18:49:53.049Z,98790.44
2023-05-25T18:52:22.524Z,98800.84
2023-05-25T18:54:51.423Z,98793.97
2023-05-25T18:57:20.162Z,98788.38
2023-05-25T18:59:49.200Z,98797.03
2023-05-25T19:02:18.295Z,98797.84
2023-05-25T19:04:50.599Z,98797.03
2023-05-25T19:07:19.137Z,98805.38
2023-05-25T19:09:48.313Z,98804.94
2023-05-25T19:12:16.595Z,98811.06
2023-05-25T19:14:45.187Z,98801.28
2023-05-25T19:17:14.550Z,98801.00
2023-05-25T19:19:43.082Z,98795.19
2023-05-25T19:22:13.023Z,98804.94
2023-05-25T19:24:43.029Z,98800.38
2023-05-25T19:27:15.322Z,98807.41
2023-05-25T19:29:45.806Z,98805.94
2023-05-25T19:32:15.155Z,98801.97
2023-05-25T19:34:46.884Z,98806.50
2023-05-25T19:37:16.536Z,98800.72
2023-05-25T19:39:45.822Z,98809.38
2023-05-25T19:42:14.213Z,98799.81
2023-05-25T19:44:42.932Z,98796.56
2023-05-25T19:47:11.266Z,98796.09
2023-05-25T19:49:40.018Z,98806.22
2023-05-25T19:52:08.544Z,98799.88
2023-05-25T19:54:39.391Z,98804.34
2023-05-25T19:57:07.854Z,98794.81
2023-05-25T19:59:37.669Z,98800.53
2023-05-25T20:02:06.508Z,98792.19
2023-05-25T20:04:35.317Z,98795.28
2023-05-25T20:07:03.704Z,98791.88
2023-05-25T20:09:32.483Z,98793.47
2023-05-25T20:12:02.660Z,98796.38
2023-05-25T20:14:31.395Z,98789.56
2023-05-25T20:16:59.825Z,98788.09
2023-05-25T20:19:28.527Z,98794.13
2023-05-25T20:21:57.920Z,98791.69
2023-05-25T20:24:26.816Z,98796.13
2023-05-25T20:26:56.907Z,98799.53
2023-05-25T20:29:27.624Z,98798.81
2023-05-25T20:31:55.977Z,98796.09
2023-05-25T20:34:24.681Z,98795.63
2023-05-25T20:36:53.660Z,98797.91
2023-05-25T20:39:22.228Z,98809.00
2023-05-25T20:41:50.727Z,98802.31
2023-05-25T20:44:19.360Z,98805.91
2023-05-25T20:46:49.062Z,98798.94
2023-05-25T20:49:17.678Z,98797.56
2023-05-25T20:51:50.072Z,98800.66
2023-05-25T20:54:18.924Z,98802.47
2023-05-25T20:56:51.161Z,98806.22
2023-05-25T20:59:19.726Z,98800.03
2023-05-25T21:01:49.397Z,98808.56
2023-05-25T21:04:18.106Z,98799.81
2023-05-25T21:06:46.888Z,98803.41
2023-05-25T21:09:15.560Z,98808.19
2023-05-25T21:11:43.971Z,98807.34
2023-05-25T21:14:12.716Z,98798.56
2023-05-25T21:16:41.188Z,98808.97
2023-05-25T21:19:11.638Z,98808.72
2023-05-25T21:21:40.223Z,98817.47
2023-05-25T21:24:09.252Z,98816.97
2023-05-25T21:26:37.646Z,98812.09
2023-05-25T21:29:07.958Z,98811.13
2023-05-25T21:31:36.408Z,98818.78
2023-05-25T21:34:05.549Z,98822.84
2023-05-25T21:36:36.389Z,98816.03
2023-05-25T21:39:05.443Z,98808.63
2023-05-25T21:41:33.838Z,98811.13
2023-05-25T21:44:02.539Z,98814.03
2023-05-25T21:46:31.076Z,98816.66
2023-05-25T21:49:00.769Z,98816.19
2023-05-25T21:51:30.099Z,98819.94
2023-05-25T21:54:00.607Z,98820.22
2023-05-25T21:56:29.102Z,98815.69
2023-05-25T21:58:57.754Z,98815.84
2023-05-25T22:01:26.284Z,98817.50
2023-05-25T22:03:54.948Z,98802.31
2023-05-25T22:06:24.420Z,98812.84
2023-05-25T22:08:53.142Z,98809.16
2023-05-25T22:11:24.594Z,98812.56
2023-05-25T22:13:53.573Z,98810.50
2023-05-25T22:16:22.298Z,98809.69
2023-05-25T22:18:51.091Z,98809.16
2023-05-25T22:21:19.368Z,98812.94
2023-05-25T22:23:48.130Z,98813.91
2023-05-25T22:26:16.409Z,98812.97
2023-05-25T22:28:46.481Z,98815.66
2023-05-25T22:31:14.940Z,98811.47
2023-05-25T22:33:46.762Z,98813.50
2023-05-25T22:36:16.389Z,98817.53
2023-05-25T22:38:44.878Z,98818.84
2023-05-25T22:41:13.660Z,98806.22
2023-05-25T22:43:42.427Z,98802.50
2023-05-25T22:46:12.192Z,98807.97
2023-05-25T22:48:41.255Z,98801.97
2023-05-25T22:51:09.540Z,98798.59
2023-05-25T22:53:38.542Z,98797.91
2023-05-25T22:56:07.040Z,98799.06
2023-05-25T22:58:35.880Z,98801.84
2023-05-25T23:01:04.248Z,98809.22
2023-05-25T23:03:34.471Z,98805.38
2023-05-25T23:06:03.070Z,98807.38
2023-05-25T23:08:32.013Z,98812.28
2023-05-25T23:11:00.275Z,98817.53
2023-05-25T23:13:29.592Z,98805.47
2023-05-25T23:15:57.981Z,98818.38
2023-05-25T23:18:26.910Z,98812.16
2023-05-25T23:20:56.830Z,98813.38
2023-05-25T23:23:25.381Z,98816.25
2023-05-25T23:25:54.360Z,98814.63
2023-05-25T23:28:23.049Z,98811.81
2023-05-25T23:30:51.981Z,98810.69
2023-05-25T23:33:20.451Z,98811.34
2023-05-25T23:35:49.121Z,98805.16
2023-05-25T23:38:19.550Z,98806.88
2023-05-25T23:40:47.874Z,98806.97
2023-05-25T23:43:17.334Z,98805.94
2023-05-25T23:45:45.876Z,98800.41
2023-05-25T23:48:14.855Z,98805.66
2023-05-25T23:50:43.124Z,98807.09
2023-05-25T23:53:11.987Z,98800.41
2023-05-25T23:55:42.033Z,98799.19
2023-05-25T23:58:10.539Z,98800.09
